Forside
METAR-TAF:

METAR-TAF

Lufthavne :

Flughafen Heringsdorf

Heringsdorf, Tyskland

Breddekreds: 53-53N, længdekreds: 014-09E, højde: 28 m

Aktuelle vejr

Denne rapport blev lavet for 20 minutter siden, kl. 13:20 UTC
Vind 14 kt fra nord, varierende mellem nord og nordøst
Temperatur 8°C
Fugtighed 76%
Tryk 1022 hPa
Sigt 10 km eller mere
Nogle få skyer i en højde af 2000 ft

METAR: EDAH 171320Z 01014KT 350V050 9999 FEW020 08/04 Q1022

Tid: 15:40 (13:40 UTC)

Vejrudsigter

Denne rapport blev lavet for 2 timer og 40 minutter siden, kl. 11:00 UTC
Foreløbig gælder fra 17 på 12 UTC til 17 på 21 UTC
Vind 10 kt fra nordnordøst
Sigt 10 km eller mere
Spredte skyer i en højde af 4000 ft

TAF: EDAH 171100Z 1712/1721 02010KT 9999 SCT040

Vejrobservationer og prognoser fra mere end 4000 lufthavne (METAR og TAF).

De gule og røde prikker repræsenterer de meteorologiske stationer.

Flyt musen over at se navnet på stationen.

Så klik over at se vejr observationer og prognoser.

At skifte det kort: Klik på de grønne knapper med et sort kors for at zoome ind; på den grønne knap med en bindestreg for at zoome ud; eller på de grønne pile for tilstødende kort.


METAR-TAF: